Time;durP1;ratioP1;P1;durP2;ratioP2;P2;SDS_P1;SDS_P2;PMS_P1;PMS_P2;Temp;Humidity;BMP_temperature;BMP_pressure;BME280_temperature;BME280_humidity;BME280_pressure;Samples;Min_cycle;Max_cycle;Signal;HPM_P1;HPM_P2
2022/11/17 00:01:58;;;;;;;11.82;3.17;;;;;;;;;;5019089;28;20022;-30
2022/11/17 00:04:25;;;;;;;18.10;2.88;;;;;;;;;;5018715;28;20077;-31
2022/11/17 00:06:52;;;;;;;12.20;3.05;;;;;;;;;;5018824;28;20461;-31
2022/11/17 00:09:18;;;;;;;13.43;4.30;;;;;;;;;;5019027;28;20029;-30
2022/11/17 00:14:33;;;;;;;11.50;3.35;;;;;;;;;;5018975;28;20483;-30
2022/11/17 00:17:03;;;;;;;14.20;3.80;;;;;;;;;;5018528;28;20034;-31
2022/11/17 00:22:14;;;;;;;10.00;3.30;;;;;;;;;;5019003;28;20040;-31
2022/11/17 00:24:40;;;;;;;15.98;2.97;;;;;;;;;;5018479;28;20465;-30
2022/11/17 00:27:06;;;;;;;15.00;3.17;;;;;;;;;;5018402;28;20026;-30
2022/11/17 00:29:33;;;;;;;6.82;2.72;;;;;;;;;;5018641;28;20061;-30
2022/11/17 00:34:44;;;;;;;10.10;3.10;;;;;;;;;;5018367;28;20040;-29
2022/11/17 00:37:11;;;;;;;8.75;2.85;;;;;;;;;;5018773;28;20131;-30
2022/11/17 00:39:37;;;;;;;13.95;4.32;;;;;;;;;;5018371;28;20408;-31
2022/11/17 00:42:03;;;;;;;10.90;3.15;;;;;;;;;;5018616;28;20441;-31
2022/11/17 00:44:29;;;;;;;14.00;3.67;;;;;;;;;;5018405;28;20393;-30
2022/11/17 00:46:56;;;;;;;8.68;3.90;;;;;;;;;;5018304;28;20038;-30
2022/11/17 00:49:25;;;;;;;9.80;3.17;;;;;;;;;;5018265;28;20334;-30
2022/11/17 00:51:56;;;;;;;8.68;3.05;;;;;;;;;;5017894;28;20026;-29
2022/11/17 00:54:23;;;;;;;23.67;3.97;;;;;;;;;;5018207;28;20038;-31
2022/11/17 00:56:49;;;;;;;7.43;3.15;;;;;;;;;;5017884;28;20026;-31
2022/11/17 00:59:16;;;;;;;13.48;2.95;;;;;;;;;;5017738;28;20121;-30
2022/11/17 01:01:42;;;;;;;10.20;2.85;;;;;;;;;;5017801;28;20032;-29
2022/11/17 01:04:09;;;;;;;9.13;3.05;;;;;;;;;;5017526;28;20054;-40
2022/11/17 01:06:40;;;;;;;8.02;2.97;;;;;;;;;;5016762;28;20465;-30
2022/11/17 01:09:08;;;;;;;7.22;3.10;;;;;;;;;;5016727;28;20072;-29
2022/11/17 01:11:34;;;;;;;17.25;3.17;;;;;;;;;;5018212;28;20026;-30
2022/11/17 01:14:00;;;;;;;14.95;3.88;;;;;;;;;;5017561;28;20041;-30
2022/11/17 01:16:27;;;;;;;7.25;2.28;;;;;;;;;;5017527;28;20026;-30
2022/11/17 01:18:53;;;;;;;7.25;2.65;;;;;;;;;;5017394;28;20106;-30
2022/11/17 01:21:23;;;;;;;14.88;3.20;;;;;;;;;;5017702;28;20049;-30
2022/11/17 01:23:51;;;;;;;7.25;2.85;;;;;;;;;;5017329;28;20029;-30
2022/11/17 01:26:19;;;;;;;12.02;2.90;;;;;;;;;;5017891;28;20021;-30
2022/11/17 01:28:45;;;;;;;9.55;3.65;;;;;;;;;;5016318;28;20052;-30
2022/11/17 01:31:12;;;;;;;8.20;2.60;;;;;;;;;;5017205;28;20030;-30
2022/11/17 01:33:39;;;;;;;5.68;3.28;;;;;;;;;;5017097;28;20029;-29
2022/11/17 01:36:07;;;;;;;9.98;2.35;;;;;;;;;;5017085;28;20057;-30
2022/11/17 01:38:34;;;;;;;14.05;3.00;;;;;;;;;;5017563;28;20404;-31
2022/11/17 01:41:01;;;;;;;6.30;2.85;;;;;;;;;;5017350;28;20105;-30
2022/11/17 01:43:37;;;;;;;8.55;3.35;;;;;;;;;;5016941;28;20018;-30
2022/11/17 01:46:04;;;;;;;8.73;3.40;;;;;;;;;;5017251;28;20389;-29
2022/11/17 01:48:30;;;;;;;11.20;2.33;;;;;;;;;;5017399;28;20044;-31
2022/11/17 01:50:56;;;;;;;7.07;2.33;;;;;;;;;;5017137;28;20045;-30
2022/11/17 01:53:23;;;;;;;12.27;3.30;;;;;;;;;;5016774;28;20496;-30
2022/11/17 01:55:55;;;;;;;6.00;2.90;;;;;;;;;;5016725;28;20049;-29
2022/11/17 01:58:24;;;;;;;6.93;2.63;;;;;;;;;;5016637;28;20052;-31
2022/11/17 02:00:52;;;;;;;9.45;2.45;;;;;;;;;;5015712;28;20377;-30
2022/11/17 02:03:18;;;;;;;8.40;2.80;;;;;;;;;;5016359;28;20049;-30
2022/11/17 02:05:59;;;;;;;5.10;2.38;;;;;;;;;;5016611;28;20105;-29
2022/11/17 02:08:27;;;;;;;5.78;3.17;;;;;;;;;;5016467;28;20161;-30
2022/11/17 02:10:54;;;;;;;4.82;2.67;;;;;;;;;;5016767;28;20036;-29
2022/11/17 02:13:21;;;;;;;5.82;3.05;;;;;;;;;;5016370;28;20033;-30
2022/11/17 02:15:47;;;;;;;9.52;2.67;;;;;;;;;;5016409;28;20401;-31
2022/11/17 02:18:14;;;;;;;7.22;2.40;;;;;;;;;;5016526;28;20038;-32
2022/11/17 02:20:40;;;;;;;10.40;2.95;;;;;;;;;;5016315;28;20032;-31
2022/11/17 02:23:25;;;;;;;9.80;2.95;;;;;;;;;;5016440;28;20033;-30
2022/11/17 02:26:03;;;;;;;6.20;2.42;;;;;;;;;;5016214;28;20040;-31
2022/11/17 02:28:31;;;;;;;5.65;2.72;;;;;;;;;;5016475;28;20049;-30
2022/11/17 02:31:21;;;;;;;5.90;1.90;;;;;;;;;;5016115;28;20072;-31
2022/11/17 02:33:50;;;;;;;8.43;3.43;;;;;;;;;;5016134;28;20026;-30
2022/11/17 02:36:18;;;;;;;16.80;5.95;;;;;;;;;;5016243;28;20377;-30
2022/11/17 02:39:04;;;;;;;12.18;3.72;;;;;;;;;;5015902;28;20033;-29
2022/11/17 02:41:51;;;;;;;5.53;2.60;;;;;;;;;;5016273;28;20092;-37
2022/11/17 02:44:25;;;;;;;8.25;3.20;;;;;;;;;;5002614;28;20038;-30
2022/11/17 02:46:54;;;;;;;8.23;2.60;;;;;;;;;;5016153;28;20084;-29
2022/11/17 02:49:26;;;;;;;10.52;3.28;;;;;;;;;;5016025;28;20033;-30
2022/11/17 02:51:54;;;;;;;4.38;2.72;;;;;;;;;;5015645;28;20460;-30
2022/11/17 02:54:22;;;;;;;7.40;2.60;;;;;;;;;;5015960;28;20057;-30
2022/11/17 02:56:48;;;;;;;6.07;2.47;;;;;;;;;;5015933;28;20045;-31
2022/11/17 02:59:16;;;;;;;4.00;2.80;;;;;;;;;;5015815;28;20343;-30
2022/11/17 03:01:45;;;;;;;6.85;2.60;;;;;;;;;;5015870;28;20101;-30
2022/11/17 03:04:21;;;;;;;6.28;2.78;;;;;;;;;;5015334;28;20546;-31
2022/11/17 03:06:56;;;;;;;7.60;2.47;;;;;;;;;;5015462;28;20105;-31
2022/11/17 03:09:25;;;;;;;11.93;3.85;;;;;;;;;;5015953;28;20036;-31
2022/11/17 03:11:52;;;;;;;5.78;2.72;;;;;;;;;;5015853;28;20100;-30
2022/11/17 03:14:41;;;;;;;4.70;3.22;;;;;;;;;;5015316;28;20095;-30
2022/11/17 03:17:13;;;;;;;8.50;2.63;;;;;;;;;;5005327;28;20053;-30
2022/11/17 03:19:47;;;;;;;5.13;2.60;;;;;;;;;;5015533;28;20032;-30
2022/11/17 03:22:20;;;;;;;6.28;2.50;;;;;;;;;;5014241;28;20514;-29
2022/11/17 03:24:50;;;;;;;5.80;2.35;;;;;;;;;;5015530;28;20049;-29
2022/11/17 03:27:20;;;;;;;6.80;2.55;;;;;;;;;;5015224;28;20492;-30
2022/11/17 03:29:48;;;;;;;4.68;2.72;;;;;;;;;;5015143;28;20048;-29
2022/11/17 03:32:15;;;;;;;4.90;2.42;;;;;;;;;;5014759;28;20025;-30
2022/11/17 03:34:44;;;;;;;7.50;2.42;;;;;;;;;;5014861;28;20046;-30
2022/11/17 03:37:11;;;;;;;9.48;3.08;;;;;;;;;;5015004;28;20453;-30
2022/11/17 03:39:40;;;;;;;6.05;2.13;;;;;;;;;;5015197;28;20038;-30
2022/11/17 03:42:14;;;;;;;5.85;2.78;;;;;;;;;;5015171;28;20357;-30
2022/11/17 03:44:42;;;;;;;5.07;2.72;;;;;;;;;;5014932;28;20026;-30
2022/11/17 03:47:10;;;;;;;6.63;2.58;;;;;;;;;;5015199;28;20022;-30
2022/11/17 03:49:39;;;;;;;4.93;2.50;;;;;;;;;;5014911;28;20108;-30
2022/11/17 03:52:06;;;;;;;5.05;4.05;;;;;;;;;;5014826;28;20029;-30
2022/11/17 03:54:32;;;;;;;6.70;2.28;;;;;;;;;;5015104;28;20369;-30
2022/11/17 03:57:37;;;;;;;5.13;2.35;;;;;;;;;;5015103;28;20036;-30
2022/11/17 04:00:03;;;;;;;5.88;3.55;;;;;;;;;;4936029;29;20148;-29
2022/11/17 04:02:29;;;;;;;8.43;2.58;;;;;;;;;;4935582;29;20050;-31
2022/11/17 04:05:05;;;;;;;8.27;3.35;;;;;;;;;;4964081;28;20058;-29
2022/11/17 04:07:31;;;;;;;7.30;2.65;;;;;;;;;;4995172;28;20026;-29
2022/11/17 04:09:57;;;;;;;5.72;3.05;;;;;;;;;;4995085;28;20058;-29
2022/11/17 04:17:54;;;;;;;5.32;2.45;;;;;;;;;;4995368;28;20085;-30
2022/11/17 04:20:21;;;;;;;5.38;2.53;;;;;;;;;;4995207;28;20019;-31
2022/11/17 04:23:05;;;;;;;4.65;2.28;;;;;;;;;;4994926;28;20166;-31
2022/11/17 04:28:35;;;;;;;6.00;2.25;;;;;;;;;;4995279;28;20037;-30
2022/11/17 04:31:24;;;;;;;5.18;2.50;;;;;;;;;;4994026;28;20023;-30
2022/11/17 04:33:51;;;;;;;6.30;2.70;;;;;;;;;;4994815;28;20023;-30
2022/11/17 04:36:18;;;;;;;7.97;2.13;;;;;;;;;;4995614;28;20034;-29
2022/11/17 04:38:46;;;;;;;5.28;2.25;;;;;;;;;;4994777;28;20062;-31
2022/11/17 04:43:58;;;;;;;6.55;2.85;;;;;;;;;;4995425;28;20108;-30
2022/11/17 04:46:25;;;;;;;5.82;2.47;;;;;;;;;;4998661;28;20105;-30
2022/11/17 04:48:52;;;;;;;8.43;3.50;;;;;;;;;;4998212;28;20038;-30
2022/11/17 04:51:18;;;;;;;7.00;2.50;;;;;;;;;;4998279;28;20085;-30
2022/11/17 04:53:45;;;;;;;8.45;2.30;;;;;;;;;;4997169;28;20102;-29
2022/11/17 04:56:12;;;;;;;8.05;2.85;;;;;;;;;;4998440;28;20049;-30
2022/11/17 04:58:38;;;;;;;8.13;2.67;;;;;;;;;;4998024;28;20022;-30
2022/11/17 05:01:14;;;;;;;3.72;2.65;;;;;;;;;;4998282;28;20357;-31
2022/11/17 05:03:48;;;;;;;5.28;2.30;;;;;;;;;;5007391;28;20054;-30
2022/11/17 05:06:16;;;;;;;7.18;2.47;;;;;;;;;;5017651;28;20088;-31
2022/11/17 05:08:43;;;;;;;6.78;3.50;;;;;;;;;;5017537;28;20416;-31
2022/11/17 05:13:55;;;;;;;9.52;2.60;;;;;;;;;;5017731;28;20044;-31
2022/11/17 05:19:07;;;;;;;11.98;3.35;;;;;;;;;;5017444;28;20056;-30
2022/11/17 05:21:34;;;;;;;8.63;3.63;;;;;;;;;;5017362;28;20049;-30
2022/11/17 05:24:00;;;;;;;5.50;2.55;;;;;;;;;;5017819;28;20037;-30
2022/11/17 05:26:28;;;;;;;10.43;3.20;;;;;;;;;;5017761;28;20353;-31
2022/11/17 05:28:54;;;;;;;4.45;2.47;;;;;;;;;;5017505;28;20034;-30
2022/11/17 05:31:21;;;;;;;7.90;2.22;;;;;;;;;;5017023;28;20022;-30
2022/11/17 05:33:47;;;;;;;6.47;2.90;;;;;;;;;;5016031;28;20053;-30
2022/11/17 05:36:14;;;;;;;4.78;2.33;;;;;;;;;;5017362;28;20029;-30
2022/11/17 05:38:40;;;;;;;6.25;2.30;;;;;;;;;;5016891;28;20034;-30
2022/11/17 05:41:06;;;;;;;7.13;3.05;;;;;;;;;;5017487;28;20339;-31
2022/11/17 05:43:33;;;;;;;9.80;2.75;;;;;;;;;;5016776;28;20025;-31
2022/11/17 05:45:59;;;;;;;5.28;2.15;;;;;;;;;;5016935;28;20054;-31
2022/11/17 05:48:25;;;;;;;4.22;2.33;;;;;;;;;;5017082;28;20049;-32
2022/11/17 05:50:54;;;;;;;6.15;3.10;;;;;;;;;;5017062;28;20334;-31
2022/11/17 05:53:21;;;;;;;6.35;2.35;;;;;;;;;;5016899;28;20053;-32
2022/11/17 05:55:48;;;;;;;5.38;3.28;;;;;;;;;;5016046;28;20449;-32
2022/11/17 05:58:18;;;;;;;7.90;3.65;;;;;;;;;;5016620;28;20030;-31
2022/11/17 06:03:29;;;;;;;6.13;2.55;;;;;;;;;;5282700;23;20120;-26
2022/11/17 06:05:55;;;;;;;10.05;3.60;;;;;;;;;;4998112;28;20315;-27
2022/11/17 06:08:21;;;;;;;10.30;2.83;;;;;;;;;;4997284;28;20034;-28
2022/11/17 06:10:47;;;;;;;6.82;2.65;;;;;;;;;;4996987;28;20369;-26
2022/11/17 06:13:14;;;;;;;7.28;2.28;;;;;;;;;;4996927;28;20369;-26
2022/11/17 06:15:40;;;;;;;9.52;2.53;;;;;;;;;;4996817;28;20110;-26
2022/11/17 06:18:13;;;;;;;10.10;2.95;;;;;;;;;;4996980;28;20022;-26
2022/11/17 06:20:45;;;;;;;13.23;2.95;;;;;;;;;;4995807;28;20030;-26
2022/11/17 06:23:11;;;;;;;11.27;2.95;;;;;;;;;;4996033;28;20037;-26
2022/11/17 06:25:38;;;;;;;3.35;2.08;;;;;;;;;;4996534;28;20030;-26
2022/11/17 06:28:07;;;;;;;17.70;4.45;;;;;;;;;;4995591;28;20105;-26
2022/11/17 06:30:34;;;;;;;9.00;2.40;;;;;;;;;;4995818;28;20173;-25
2022/11/17 06:33:01;;;;;;;7.63;2.45;;;;;;;;;;4996650;28;20034;-25
2022/11/17 06:35:32;;;;;;;7.55;2.30;;;;;;;;;;4996487;28;20022;-26
2022/11/17 06:37:58;;;;;;;6.82;2.97;;;;;;;;;;4996666;28;20347;-26
2022/11/17 06:40:25;;;;;;;7.40;3.40;;;;;;;;;;4996561;28;20063;-25
2022/11/17 06:43:07;;;;;;;8.23;2.90;;;;;;;;;;4996202;28;20041;-26
2022/11/17 06:45:34;;;;;;;6.35;2.10;;;;;;;;;;4995300;28;20058;-25
2022/11/17 06:48:01;;;;;;;6.18;2.50;;;;;;;;;;4996195;28;20053;-26
2022/11/17 06:50:27;;;;;;;6.18;2.40;;;;;;;;;;4996155;28;20527;-26
2022/11/17 06:53:00;;;;;;;4.47;2.35;;;;;;;;;;4996827;28;20038;-26
2022/11/17 06:55:26;;;;;;;10.95;2.88;;;;;;;;;;4996455;28;20101;-25
2022/11/17 06:57:58;;;;;;;6.55;2.55;;;;;;;;;;4995914;28;20026;-25
2022/11/17 07:00:24;;;;;;;4.13;2.17;;;;;;;;;;4996116;28;20034;-26
2022/11/17 07:02:51;;;;;;;5.57;2.55;;;;;;;;;;4995822;28;20101;-25
2022/11/17 07:05:17;;;;;;;7.28;3.10;;;;;;;;;;4995981;28;20050;-26
2022/11/17 07:07:43;;;;;;;4.75;2.08;;;;;;;;;;4995520;28;20053;-25
2022/11/17 07:10:09;;;;;;;6.18;2.42;;;;;;;;;;4994703;28;20042;-26
2022/11/17 07:12:36;;;;;;;10.50;2.78;;;;;;;;;;4995715;28;20063;-26
2022/11/17 07:15:02;;;;;;;9.00;3.22;;;;;;;;;;4995843;28;20410;-25
2022/11/17 07:17:28;;;;;;;8.05;2.55;;;;;;;;;;4995467;28;20040;-25
2022/11/17 07:19:54;;;;;;;6.78;2.67;;;;;;;;;;4995431;28;20099;-26
2022/11/17 07:22:20;;;;;;;7.57;2.42;;;;;;;;;;4995690;28;20053;-26
2022/11/17 07:24:46;;;;;;;11.20;3.45;;;;;;;;;;4994439;28;20311;-26
2022/11/17 07:27:12;;;;;;;10.35;3.80;;;;;;;;;;4995740;28;20406;-25
2022/11/17 07:29:39;;;;;;;8.02;2.55;;;;;;;;;;4995474;28;20480;-26
2022/11/17 07:32:06;;;;;;;6.32;2.00;;;;;;;;;;4995317;28;20419;-25
2022/11/17 07:34:33;;;;;;;8.70;2.92;;;;;;;;;;4995622;28;20085;-26
2022/11/17 07:36:59;;;;;;;7.82;3.55;;;;;;;;;;4995331;28;20027;-27
2022/11/17 07:39:25;;;;;;;8.32;2.75;;;;;;;;;;4995467;28;20382;-26
2022/11/17 07:41:51;;;;;;;11.07;2.63;;;;;;;;;;4994899;28;20121;-26
2022/11/17 07:44:17;;;;;;;8.52;2.35;;;;;;;;;;4995144;28;20054;-26
2022/11/17 07:46:43;;;;;;;5.22;3.47;;;;;;;;;;4995025;28;20049;-25
2022/11/17 07:49:09;;;;;;;11.57;2.78;;;;;;;;;;4994146;28;20052;-25
2022/11/17 07:51:36;;;;;;;5.38;2.47;;;;;;;;;;4993959;28;20038;-26
2022/11/17 07:54:02;;;;;;;8.35;2.33;;;;;;;;;;4993962;28;20036;-25
2022/11/17 07:56:28;;;;;;;8.73;2.85;;;;;;;;;;4994291;28;20084;-25
2022/11/17 07:58:54;;;;;;;9.57;2.67;;;;;;;;;;4994937;28;20042;-26
2022/11/17 08:01:20;;;;;;;13.65;2.58;;;;;;;;;;4995319;28;20031;-25
2022/11/17 08:03:46;;;;;;;6.32;2.45;;;;;;;;;;4995378;28;20047;-26
2022/11/17 08:06:13;;;;;;;8.75;3.30;;;;;;;;;;4995040;28;20022;-26
2022/11/17 08:08:39;;;;;;;11.60;3.03;;;;;;;;;;4995700;28;20441;-26
2022/11/17 08:11:06;;;;;;;7.38;2.20;;;;;;;;;;4995056;28;20330;-25
2022/11/17 08:13:33;;;;;;;8.85;2.50;;;;;;;;;;4995090;28;20030;-25
2022/11/17 08:15:59;;;;;;;5.10;2.30;;;;;;;;;;4994905;28;20030;-26
2022/11/17 08:18:25;;;;;;;9.23;2.90;;;;;;;;;;4994847;28;20034;-27
2022/11/17 08:20:52;;;;;;;6.30;4.13;;;;;;;;;;4998886;28;20106;-26
2022/11/17 08:23:18;;;;;;;12.18;2.78;;;;;;;;;;4998876;28;20030;-25
2022/11/17 08:25:44;;;;;;;9.70;2.63;;;;;;;;;;4998420;28;20049;-27
2022/11/17 08:28:10;;;;;;;12.48;2.30;;;;;;;;;;4998684;28;20058;-26
2022/11/17 08:30:36;;;;;;;6.88;2.65;;;;;;;;;;4998759;28;20331;-32
2022/11/17 08:33:02;;;;;;;4.45;2.30;;;;;;;;;;4998164;28;20487;-26
2022/11/17 08:35:29;;;;;;;5.05;2.28;;;;;;;;;;4998183;28;20043;-26
2022/11/17 08:37:55;;;;;;;10.50;2.80;;;;;;;;;;4998146;28;20114;-26
2022/11/17 08:40:21;;;;;;;11.95;3.63;;;;;;;;;;4997893;28;20038;-26
2022/11/17 08:42:52;;;;;;;6.85;2.47;;;;;;;;;;4997933;28;20034;-26
2022/11/17 08:45:18;;;;;;;5.55;3.17;;;;;;;;;;4998108;28;20169;-28
2022/11/17 08:47:45;;;;;;;9.93;3.72;;;;;;;;;;4998207;28;20353;-26
2022/11/17 08:50:11;;;;;;;6.13;3.03;;;;;;;;;;4998619;28;20357;-26
2022/11/17 08:52:37;;;;;;;15.15;2.83;;;;;;;;;;4998171;28;20464;-25
2022/11/17 08:55:07;;;;;;;3.78;2.58;;;;;;;;;;4998231;28;20035;-25
2022/11/17 08:57:33;;;;;;;9.77;2.78;;;;;;;;;;4998110;28;20057;-26
2022/11/17 08:59:59;;;;;;;10.73;2.45;;;;;;;;;;4997702;28;20365;-26
2022/11/17 09:02:25;;;;;;;5.97;2.40;;;;;;;;;;4997469;28;20051;-26
2022/11/17 09:04:52;;;;;;;9.10;2.60;;;;;;;;;;4998248;28;20061;-25
2022/11/17 09:07:18;;;;;;;5.30;2.90;;;;;;;;;;4997695;28;20146;-26
2022/11/17 09:09:45;;;;;;;9.85;2.80;;;;;;;;;;4997500;28;20050;-25
2022/11/17 09:12:11;;;;;;;6.13;3.63;;;;;;;;;;4997736;28;20113;-26
2022/11/17 09:14:37;;;;;;;6.88;2.47;;;;;;;;;;4997874;28;20089;-26
2022/11/17 09:17:03;;;;;;;5.80;2.00;;;;;;;;;;4997900;28;20030;-26
2022/11/17 09:19:29;;;;;;;9.75;3.38;;;;;;;;;;4997349;28;20096;-26
2022/11/17 09:21:56;;;;;;;8.48;2.35;;;;;;;;;;4997181;28;20042;-25
2022/11/17 09:24:22;;;;;;;8.93;3.42;;;;;;;;;;4997326;28;20030;-25
2022/11/17 09:26:49;;;;;;;11.52;2.53;;;;;;;;;;4997607;28;20026;-25
2022/11/17 09:29:15;;;;;;;7.63;3.03;;;;;;;;;;4997562;28;20105;-25
2022/11/17 09:31:41;;;;;;;9.75;2.75;;;;;;;;;;4996089;28;20034;-25
2022/11/17 09:34:07;;;;;;;5.82;2.42;;;;;;;;;;4997319;28;20026;-26
2022/11/17 09:36:33;;;;;;;6.80;3.83;;;;;;;;;;4997646;28;20033;-25
2022/11/17 09:39:00;;;;;;;11.00;3.10;;;;;;;;;;4997028;28;20026;-26
2022/11/17 09:41:26;;;;;;;9.75;3.15;;;;;;;;;;4997055;28;20035;-26
2022/11/17 09:43:57;;;;;;;14.40;3.47;;;;;;;;;;4997157;28;20042;-26
2022/11/17 09:46:45;;;;;;;10.65;3.83;;;;;;;;;;4997811;28;20065;-25
2022/11/17 09:49:33;;;;;;;6.07;2.13;;;;;;;;;;4997506;28;20466;-25
2022/11/17 09:52:06;;;;;;;7.03;2.40;;;;;;;;;;4997406;28;20392;-25
2022/11/17 09:54:40;;;;;;;10.38;2.83;;;;;;;;;;4997254;28;20038;-25
2022/11/17 09:57:10;;;;;;;6.55;2.55;;;;;;;;;;4997470;28;20045;-25
2022/11/17 09:59:37;;;;;;;10.53;3.07;;;;;;;;;;4997317;28;20096;-26
2022/11/17 10:02:08;;;;;;;7.88;2.30;;;;;;;;;;4996579;28;20031;-26
2022/11/17 10:04:35;;;;;;;14.70;3.15;;;;;;;;;;4996919;28;20110;-25
2022/11/17 10:07:02;;;;;;;12.02;2.80;;;;;;;;;;4996956;28;20038;-26
2022/11/17 10:09:49;;;;;;;6.93;2.83;;;;;;;;;;4997231;28;20018;-26
2022/11/17 10:12:23;;;;;;;9.98;2.53;;;;;;;;;;4996516;28;20438;-26
2022/11/17 10:14:49;;;;;;;5.22;2.20;;;;;;;;;;4996727;28;20037;-25
2022/11/17 10:17:15;;;;;;;10.60;3.30;;;;;;;;;;4996505;28;20037;-26
2022/11/17 10:19:43;;;;;;;11.55;2.70;;;;;;;;;;4996367;28;20038;-25
2022/11/17 10:22:10;;;;;;;6.95;2.40;;;;;;;;;;4996558;28;20396;-25
2022/11/17 10:24:36;;;;;;;10.32;2.92;;;;;;;;;;4996390;28;20030;-26
2022/11/17 10:27:03;;;;;;;14.00;2.55;;;;;;;;;;4996560;28;20346;-26
2022/11/17 10:29:30;;;;;;;12.38;2.65;;;;;;;;;;4996267;28;20038;-26
2022/11/17 10:31:56;;;;;;;6.70;2.13;;;;;;;;;;4996041;28;20030;-26
2022/11/17 10:34:30;;;;;;;7.22;2.70;;;;;;;;;;4995969;28;20039;-25
2022/11/17 10:37:01;;;;;;;9.27;2.58;;;;;;;;;;4995982;28;20117;-26
2022/11/17 10:39:37;;;;;;;9.45;3.00;;;;;;;;;;4996358;28;20457;-27
2022/11/17 10:42:15;;;;;;;11.23;4.13;;;;;;;;;;4995811;28;20096;-26
2022/11/17 10:44:42;;;;;;;7.07;2.95;;;;;;;;;;4996544;28;20030;-26
2022/11/17 10:47:24;;;;;;;5.72;2.83;;;;;;;;;;4994935;28;20452;-26
2022/11/17 10:50:05;;;;;;;9.07;2.30;;;;;;;;;;4996268;28;20365;-26
2022/11/17 10:52:31;;;;;;;12.63;3.38;;;;;;;;;;4996074;28;20034;-25
2022/11/17 10:55:15;;;;;;;4.68;2.35;;;;;;;;;;4994894;28;20034;-26
2022/11/17 10:57:43;;;;;;;5.05;2.38;;;;;;;;;;4996002;28;20476;-26
2022/11/17 11:00:30;;;;;;;5.75;2.53;;;;;;;;;;4995879;28;20034;-26
2022/11/17 11:03:03;;;;;;;6.35;2.22;;;;;;;;;;4995284;28;20465;-25
2022/11/17 11:05:30;;;;;;;5.20;1.73;;;;;;;;;;4995361;28;20045;-24
2022/11/17 11:08:17;;;;;;;7.88;2.10;;;;;;;;;;4995467;28;20038;-25
2022/11/17 11:10:46;;;;;;;14.45;3.58;;;;;;;;;;4995685;28;20121;-25
2022/11/17 11:13:12;;;;;;;7.95;2.40;;;;;;;;;;4995759;28;20123;-26
2022/11/17 11:15:39;;;;;;;8.18;3.03;;;;;;;;;;4995438;28;20034;-26
2022/11/17 11:18:12;;;;;;;6.63;2.53;;;;;;;;;;4995568;28;20027;-25
2022/11/17 11:21:08;;;;;;;10.95;2.78;;;;;;;;;;4994244;28;20026;-27
2022/11/17 11:23:54;;;;;;;10.25;2.47;;;;;;;;;;4979051;28;20054;-26
2022/11/17 11:26:30;;;;;;;5.10;1.98;;;;;;;;;;4995391;28;20033;-26
2022/11/17 11:28:56;;;;;;;7.65;2.30;;;;;;;;;;4995180;28;20034;-26
2022/11/17 11:31:26;;;;;;;25.48;2.88;;;;;;;;;;4995409;28;20026;-26
2022/11/17 11:34:14;;;;;;;12.88;2.55;;;;;;;;;;4994954;28;20465;-26
2022/11/17 11:36:48;;;;;;;5.45;2.28;;;;;;;;;;4994967;28;20038;-26
2022/11/17 11:39:23;;;;;;;10.00;3.38;;;;;;;;;;4994920;28;20053;-26
2022/11/17 11:41:58;;;;;;;8.80;2.72;;;;;;;;;;4994874;28;20022;-26
2022/11/17 11:44:31;;;;;;;7.78;2.60;;;;;;;;;;4994998;28;20030;-26
2022/11/17 11:46:57;;;;;;;7.80;4.10;;;;;;;;;;4995156;28;20038;-25
2022/11/17 11:49:32;;;;;;;5.35;1.85;;;;;;;;;;4995318;28;20049;-26
2022/11/17 11:51:59;;;;;;;4.70;2.03;;;;;;;;;;4995015;28;20104;-26
2022/11/17 11:54:34;;;;;;;3.08;1.98;;;;;;;;;;4994092;28;20038;-26
2022/11/17 11:57:01;;;;;;;9.80;2.53;;;;;;;;;;4994960;28;20030;-26
2022/11/17 11:59:33;;;;;;;9.05;3.08;;;;;;;;;;4994619;28;20037;-26
2022/11/17 12:02:13;;;;;;;9.48;2.55;;;;;;;;;;4994707;28;20128;-26
2022/11/17 12:04:50;;;;;;;9.60;3.20;;;;;;;;;;4956196;28;20118;-26
2022/11/17 12:07:34;;;;;;;7.38;2.60;;;;;;;;;;4956566;29;20027;-26
2022/11/17 12:10:04;;;;;;;17.45;5.05;;;;;;;;;;4955899;29;20324;-26
2022/11/17 12:12:32;;;;;;;10.60;2.60;;;;;;;;;;4954767;29;20378;-25
2022/11/17 12:15:10;;;;;;;14.13;3.47;;;;;;;;;;4954890;29;20062;-25
2022/11/17 12:17:37;;;;;;;11.27;3.75;;;;;;;;;;4954707;29;20098;-26
2022/11/17 12:20:05;;;;;;;7.82;2.47;;;;;;;;;;4955728;28;20031;-25
2022/11/17 12:22:31;;;;;;;12.10;2.38;;;;;;;;;;4955948;28;20035;-25
2022/11/17 12:24:59;;;;;;;4.65;2.33;;;;;;;;;;4955756;28;20031;-25
2022/11/17 12:27:42;;;;;;;8.10;2.40;;;;;;;;;;4954676;29;20067;-26
2022/11/17 12:30:27;;;;;;;5.25;2.55;;;;;;;;;;4956305;28;20435;-25
2022/11/17 12:32:54;;;;;;;7.60;2.70;;;;;;;;;;4955892;28;20027;-27
2022/11/17 12:35:26;;;;;;;14.43;3.75;;;;;;;;;;4955837;28;20031;-27
2022/11/17 12:38:11;;;;;;;5.22;1.92;;;;;;;;;;4954724;29;20063;-27
2022/11/17 12:40:37;;;;;;;12.27;3.28;;;;;;;;;;4956074;29;20047;-26
2022/11/17 12:43:15;;;;;;;8.95;2.50;;;;;;;;;;4954598;29;20036;-26
2022/11/17 12:46:08;;;;;;;10.88;3.08;;;;;;;;;;4955525;29;20046;-25
2022/11/17 12:48:35;;;;;;;5.75;3.45;;;;;;;;;;4954897;29;20043;-25
2022/11/17 12:51:13;;;;;;;8.52;2.78;;;;;;;;;;4955818;28;20031;-25
2022/11/17 12:53:58;;;;;;;14.40;4.40;;;;;;;;;;4955405;29;20452;-25
2022/11/17 12:56:33;;;;;;;6.65;1.70;;;;;;;;;;4955370;29;20051;-25
2022/11/17 12:59:25;;;;;;;3.70;2.22;;;;;;;;;;4955325;28;20035;-24
2022/11/17 13:02:01;;;;;;;8.98;2.50;;;;;;;;;;4955481;29;20031;-26
2022/11/17 13:04:35;;;;;;;7.00;3.45;;;;;;;;;;4994394;28;20042;-26
2022/11/17 13:07:06;;;;;;;12.70;2.97;;;;;;;;;;4997673;28;20105;-26
2022/11/17 13:09:35;;;;;;;7.75;2.65;;;;;;;;;;4997627;28;20067;-26
2022/11/17 13:12:05;;;;;;;9.18;2.55;;;;;;;;;;4997701;28;20037;-26
2022/11/17 13:14:36;;;;;;;10.15;3.70;;;;;;;;;;4996514;28;20092;-26
2022/11/17 13:17:02;;;;;;;10.03;2.77;;;;;;;;;;4997342;28;20041;-26
2022/11/17 13:19:39;;;;;;;7.00;2.58;;;;;;;;;;4997600;28;20038;-25
2022/11/17 13:22:18;;;;;;;9.10;2.47;;;;;;;;;;4996412;28;20027;-25
2022/11/17 13:24:45;;;;;;;8.27;3.88;;;;;;;;;;4997308;28;20524;-26
2022/11/17 13:27:32;;;;;;;5.45;2.83;;;;;;;;;;4997057;28;20450;-26
2022/11/17 13:30:14;;;;;;;6.57;2.30;;;;;;;;;;4997926;28;20022;-26
2022/11/17 13:32:42;;;;;;;11.65;2.30;;;;;;;;;;4997292;28;20073;-26
2022/11/17 13:35:19;;;;;;;9.70;2.45;;;;;;;;;;4997275;28;20357;-26
2022/11/17 13:37:45;;;;;;;9.50;2.67;;;;;;;;;;4997013;28;20030;-26
2022/11/17 13:40:19;;;;;;;10.27;4.55;;;;;;;;;;4997384;28;20117;-26
2022/11/17 13:42:46;;;;;;;12.23;2.83;;;;;;;;;;4997009;28;20097;-25
2022/11/17 13:45:15;;;;;;;15.52;3.35;;;;;;;;;;4997265;28;20037;-25
2022/11/17 13:47:48;;;;;;;6.40;2.33;;;;;;;;;;4997158;28;20098;-25
2022/11/17 13:50:21;;;;;;;10.35;3.03;;;;;;;;;;4997550;28;20038;-25
2022/11/17 13:52:52;;;;;;;14.73;2.42;;;;;;;;;;4997097;28;20141;-26
2022/11/17 13:55:19;;;;;;;11.50;2.67;;;;;;;;;;4995655;28;20053;-26
2022/11/17 13:57:54;;;;;;;9.45;2.55;;;;;;;;;;4996668;28;20045;-26
2022/11/17 14:00:21;;;;;;;8.30;2.05;;;;;;;;;;4996612;28;20038;-26
2022/11/17 14:02:57;;;;;;;7.20;1.95;;;;;;;;;;4996483;28;20489;-26
2022/11/17 14:05:25;;;;;;;13.85;2.72;;;;;;;;;;4997215;28;20019;-27
2022/11/17 14:07:52;;;;;;;17.15;2.92;;;;;;;;;;4996936;28;20035;-26
2022/11/17 14:10:24;;;;;;;9.68;2.70;;;;;;;;;;4996784;28;20473;-26
2022/11/17 14:13:10;;;;;;;11.07;2.65;;;;;;;;;;4996453;28;20382;-26
2022/11/17 14:15:38;;;;;;;5.15;2.30;;;;;;;;;;4983336;28;20046;-26
2022/11/17 14:18:15;;;;;;;12.95;3.15;;;;;;;;;;4995786;28;20110;-26
2022/11/17 14:20:41;;;;;;;5.05;2.25;;;;;;;;;;4995373;28;20045;-26
2022/11/17 14:23:10;;;;;;;9.93;3.20;;;;;;;;;;4996348;28;20173;-26
2022/11/17 14:25:40;;;;;;;7.97;2.42;;;;;;;;;;4996575;28;20049;-26
2022/11/17 14:28:17;;;;;;;7.35;2.30;;;;;;;;;;4996578;28;20029;-26
2022/11/17 14:30:43;;;;;;;13.68;2.42;;;;;;;;;;4996531;28;20077;-26
2022/11/17 14:33:09;;;;;;;11.23;3.00;;;;;;;;;;4996469;28;20465;-26
2022/11/17 14:35:36;;;;;;;11.52;2.55;;;;;;;;;;4996637;28;20081;-26
2022/11/17 14:38:02;;;;;;;7.88;2.70;;;;;;;;;;4996034;28;20080;-26
2022/11/17 14:40:28;;;;;;;12.68;3.20;;;;;;;;;;4995981;28;20122;-26
2022/11/17 14:42:54;;;;;;;6.95;2.85;;;;;;;;;;4996618;28;20026;-27
2022/11/17 14:45:20;;;;;;;10.23;3.00;;;;;;;;;;4995894;28;20031;-27
2022/11/17 14:47:47;;;;;;;7.13;2.45;;;;;;;;;;4996035;28;20030;-26
2022/11/17 14:50:17;;;;;;;9.63;2.75;;;;;;;;;;4995687;28;20450;-26
2022/11/17 14:52:44;;;;;;;8.07;3.25;;;;;;;;;;4996174;28;20026;-25
2022/11/17 14:55:11;;;;;;;26.55;3.75;;;;;;;;;;4995781;28;20027;-25
2022/11/17 14:57:38;;;;;;;7.15;2.63;;;;;;;;;;4995863;28;20038;-26
2022/11/17 15:00:05;;;;;;;9.85;3.65;;;;;;;;;;4995392;28;20084;-25
2022/11/17 15:02:31;;;;;;;11.68;2.78;;;;;;;;;;4995229;28;20042;-25
2022/11/17 15:04:58;;;;;;;9.07;2.40;;;;;;;;;;4995665;28;20031;-26
2022/11/17 15:07:24;;;;;;;11.85;3.17;;;;;;;;;;4995302;28;20041;-25
2022/11/17 15:09:50;;;;;;;13.18;2.38;;;;;;;;;;4995561;28;20030;-25
2022/11/17 15:12:17;;;;;;;8.98;2.80;;;;;;;;;;4995426;28;20045;-25
2022/11/17 15:14:46;;;;;;;25.27;4.28;;;;;;;;;;4994156;28;20505;-26
2022/11/17 15:17:12;;;;;;;15.45;3.10;;;;;;;;;;4995083;28;20045;-25
2022/11/17 15:19:38;;;;;;;10.85;2.75;;;;;;;;;;4995392;28;20361;-26
2022/11/17 15:22:04;;;;;;;12.32;4.30;;;;;;;;;;4994006;28;20034;-27